createdAt,value
2019-02-20T00:01:51.164Z,101236.85
2019-02-20T00:04:16.910Z,101229.09
2019-02-20T00:06:42.716Z,101221.07
2019-02-20T00:09:08.424Z,101222.72
2019-02-20T00:11:34.168Z,101229.63
2019-02-20T00:13:59.938Z,101231.45
2019-02-20T00:16:25.816Z,101224.41
2019-02-20T00:18:52.374Z,101231.62
2019-02-20T00:21:18.131Z,101227.46
2019-02-20T00:23:43.889Z,101226.44
2019-02-20T00:26:09.640Z,101227.95
2019-02-20T00:28:35.429Z,101237.30
2019-02-20T00:31:01.179Z,101231.62
2019-02-20T00:33:26.936Z,101236.99
2019-02-20T00:35:52.679Z,101230.42
2019-02-20T00:38:18.443Z,101241.19
2019-02-20T00:40:44.193Z,101235.14
2019-02-20T00:43:09.957Z,101238.16
2019-02-20T00:45:37.603Z,101226.61
2019-02-20T00:48:14.091Z,101237.51
2019-02-20T00:50:41.731Z,101237.13
2019-02-20T00:53:15.038Z,101237.71
2019-02-20T00:55:40.804Z,101239.88
2019-02-20T00:58:06.558Z,101247.44
2019-02-20T01:00:32.319Z,101246.45
2019-02-20T01:02:58.060Z,101253.98
2019-02-20T01:05:23.818Z,101253.33
2019-02-20T01:07:49.560Z,101257.00
2019-02-20T01:10:15.324Z,101255.52
2019-02-20T01:12:41.081Z,101252.33
2019-02-20T01:15:08.869Z,101250.98
2019-02-20T01:17:34.598Z,101255.67
2019-02-20T01:20:00.458Z,101255.98
2019-02-20T01:22:26.211Z,101257.34
2019-02-20T01:24:51.971Z,101265.09
2019-02-20T01:27:17.724Z,101263.41
2019-02-20T01:29:45.414Z,101274.31
2019-02-20T01:32:11.168Z,101269.28
2019-02-20T01:34:36.945Z,101274.65
2019-02-20T01:37:02.787Z,101271.80
2019-02-20T01:39:28.638Z,101267.26
2019-02-20T01:41:54.678Z,101265.26
2019-02-20T01:44:20.443Z,101265.70
2019-02-20T01:46:46.202Z,101267.08
2019-02-20T01:49:11.964Z,101257.66
2019-02-20T01:51:37.728Z,101264.23
2019-02-20T01:54:03.488Z,101259.00
2019-02-20T01:56:29.249Z,101262.69
2019-02-20T01:58:54.998Z,101264.02
2019-02-20T02:01:20.758Z,101268.05
2019-02-20T02:03:46.507Z,101273.45
2019-02-20T02:06:12.270Z,101269.73
2019-02-20T02:08:38.016Z,101269.39
2019-02-20T02:11:03.785Z,101274.80
2019-02-20T02:13:29.535Z,101279.50
2019-02-20T02:15:55.296Z,101276.82
2019-02-20T02:18:21.049Z,101279.67
2019-02-20T02:20:46.799Z,101275.96
2019-02-20T02:23:19.627Z,101277.27
2019-02-20T02:25:40.207Z,101276.48
2019-02-20T02:28:05.957Z,101278.98
2019-02-20T02:30:31.719Z,101277.13
2019-02-20T02:32:57.475Z,101276.45
2019-02-20T02:35:23.229Z,101271.94
2019-02-20T02:37:48.988Z,101273.10
2019-02-20T02:40:14.733Z,101282.63
2019-02-20T02:42:40.508Z,101281.16
2019-02-20T02:45:06.265Z,101277.13
2019-02-20T02:47:32.038Z,101276.78
2019-02-20T02:49:57.802Z,101286.83
2019-02-20T02:52:23.573Z,101288.83
2019-02-20T02:54:49.331Z,101289.82
2019-02-20T02:57:15.091Z,101294.53
2019-02-20T02:59:40.846Z,101292.33
2019-02-20T03:02:06.606Z,101283.15
2019-02-20T03:04:32.359Z,101284.97
2019-02-20T03:06:58.129Z,101284.45
2019-02-20T03:09:23.883Z,101282.77
2019-02-20T03:11:49.642Z,101286.80
2019-02-20T03:14:15.390Z,101293.84
2019-02-20T03:16:41.155Z,101284.77
2019-02-20T03:19:06.911Z,101278.75
2019-02-20T03:21:32.673Z,101279.44
2019-02-20T03:23:58.423Z,101284.63
2019-02-20T03:26:24.187Z,101285.63
2019-02-20T03:28:49.929Z,101285.11
2019-02-20T03:31:15.696Z,101289.30
2019-02-20T03:33:41.433Z,101291.95
2019-02-20T03:36:07.190Z,101296.49
2019-02-20T03:38:32.937Z,101292.47
2019-02-20T03:40:58.789Z,101290.13
2019-02-20T03:43:24.549Z,101289.61
2019-02-20T03:45:50.301Z,101294.98
2019-02-20T03:48:16.087Z,101295.49
2019-02-20T03:50:41.834Z,101294.80
2019-02-20T03:53:07.733Z,101292.70
2019-02-20T03:55:33.578Z,101294.94
2019-02-20T03:57:59.339Z,101298.14
2019-02-20T04:00:25.088Z,101293.56
2019-02-20T04:02:50.850Z,101285.38
2019-02-20T04:05:16.598Z,101285.66
2019-02-20T04:07:42.362Z,101283.66
2019-02-20T04:10:09.107Z,101283.83
2019-02-20T04:12:34.975Z,101286.34
2019-02-20T04:15:00.740Z,101285.66
2019-02-20T04:17:26.501Z,101291.36
2019-02-20T04:19:52.252Z,101291.36
2019-02-20T04:22:18.018Z,101292.02
2019-02-20T04:24:43.773Z,101290.02
2019-02-20T04:27:09.536Z,101293.18
2019-02-20T04:29:35.285Z,101292.19
2019-02-20T04:32:01.057Z,101293.83
2019-02-20T04:34:26.813Z,101292.14
2019-02-20T04:36:52.606Z,101300.31
2019-02-20T04:39:18.379Z,101301.14
2019-02-20T04:41:44.138Z,101301.30
2019-02-20T04:44:09.921Z,101308.35
2019-02-20T04:46:35.677Z,101307.27
2019-02-20T04:49:01.453Z,101304.77
2019-02-20T04:51:27.204Z,101304.13
2019-02-20T04:53:52.965Z,101308.48
2019-02-20T04:56:18.709Z,101305.63
2019-02-20T04:58:46.281Z,101309.00
2019-02-20T05:01:12.029Z,101319.22
2019-02-20T05:03:37.801Z,101325.09
2019-02-20T05:06:03.554Z,101317.75
2019-02-20T05:08:29.315Z,101314.03
2019-02-20T05:10:55.075Z,101314.03
2019-02-20T05:13:20.875Z,101314.72
2019-02-20T05:15:46.622Z,101314.89
2019-02-20T05:18:12.382Z,101316.36
2019-02-20T05:20:38.155Z,101323.70
2019-02-20T05:23:03.919Z,101320.73
2019-02-20T05:25:29.706Z,101315.36
2019-02-20T05:27:55.437Z,101313.16
2019-02-20T05:30:21.206Z,101320.25
2019-02-20T05:32:46.979Z,101320.43
2019-02-20T05:35:12.735Z,101327.08
2019-02-20T05:37:39.725Z,101332.80
2019-02-20T05:40:07.264Z,101332.80
2019-02-20T05:42:33.037Z,101335.47
2019-02-20T05:44:58.831Z,101333.83
2019-02-20T05:47:24.585Z,101328.37
2019-02-20T05:49:50.363Z,101329.58
2019-02-20T05:52:16.108Z,101331.87
2019-02-20T05:54:41.873Z,101331.22
2019-02-20T05:57:07.644Z,101337.75
2019-02-20T05:59:33.404Z,101343.11
2019-02-20T06:01:59.152Z,101335.55
2019-02-20T06:04:24.908Z,101331.48
2019-02-20T06:06:50.660Z,101342.02
2019-02-20T06:09:16.416Z,101337.70
2019-02-20T06:11:42.166Z,101335.83
2019-02-20T06:14:07.930Z,101337.19
2019-02-20T06:16:33.695Z,101337.30
2019-02-20T06:18:59.485Z,101337.61
2019-02-20T06:21:25.228Z,101340.34
2019-02-20T06:23:51.005Z,101346.34
2019-02-20T06:26:16.759Z,101350.83
2019-02-20T06:28:42.537Z,101346.67
2019-02-20T06:31:08.293Z,101359.37
2019-02-20T06:33:34.073Z,101350.46
2019-02-20T06:35:59.847Z,101357.30
2019-02-20T06:38:25.614Z,101369.22
2019-02-20T06:40:51.388Z,101373.38
2019-02-20T06:43:17.138Z,101374.07
2019-02-20T06:45:42.906Z,101385.14
2019-02-20T06:48:08.661Z,101379.08
2019-02-20T06:50:34.440Z,101382.63
2019-02-20T06:53:00.189Z,101380.72
2019-02-20T06:55:25.973Z,101375.06
2019-02-20T06:57:51.722Z,101378.55
2019-02-20T07:00:17.514Z,101386.13
2019-02-20T07:02:43.242Z,101386.94
2019-02-20T07:05:32.765Z,101398.14
2019-02-20T07:08:17.237Z,101396.84
2019-02-20T07:11:03.454Z,101401.22
2019-02-20T07:13:33.004Z,101395.34
2019-02-20T07:16:21.703Z,101402.02
2019-02-20T07:19:02.923Z,101402.20
2019-02-20T07:21:44.602Z,101404.59
2019-02-20T07:24:23.034Z,101403.63
2019-02-20T07:27:00.975Z,101403.63
2019-02-20T07:29:58.050Z,101406.19
2019-02-20T07:32:23.802Z,101409.91
2019-02-20T07:34:49.586Z,101415.86
2019-02-20T07:37:15.324Z,101421.10
2019-02-20T07:39:41.087Z,101420.41
2019-02-20T07:42:06.835Z,101427.00
2019-02-20T07:44:32.585Z,101432.06
2019-02-20T07:46:58.345Z,101437.52
2019-02-20T07:49:24.107Z,101436.55
2019-02-20T07:51:49.890Z,101436.98
2019-02-20T07:54:15.632Z,101445.59
2019-02-20T07:56:41.394Z,101437.42
2019-02-20T07:59:07.145Z,101442.15
2019-02-20T08:01:32.913Z,101449.55
2019-02-20T08:03:58.655Z,101447.86
2019-02-20T08:06:24.417Z,101449.50
2019-02-20T08:08:50.168Z,101456.61
2019-02-20T08:11:15.934Z,101455.96
2019-02-20T08:13:41.678Z,101460.50
2019-02-20T08:16:07.458Z,101467.44
2019-02-20T08:18:33.212Z,101472.50
2019-02-20T08:20:58.970Z,101476.62
2019-02-20T08:23:24.720Z,101475.45
2019-02-20T08:25:50.479Z,101477.31
2019-02-20T08:28:16.231Z,101483.89
2019-02-20T08:30:42.118Z,101487.36
2019-02-20T08:33:07.881Z,101494.97
2019-02-20T08:35:33.649Z,101491.43
2019-02-20T08:37:59.537Z,101501.35
2019-02-20T08:40:31.525Z,101503.59
2019-02-20T08:42:57.404Z,101507.63
2019-02-20T08:45:23.151Z,101510.79
2019-02-20T08:47:48.916Z,101515.98
2019-02-20T08:50:16.632Z,101515.81
2019-02-20T08:52:42.395Z,101523.22
2019-02-20T08:55:08.846Z,101518.54
2019-02-20T08:57:34.660Z,101527.72
2019-02-20T09:00:00.379Z,101529.97
2019-02-20T09:02:26.139Z,101521.84
2019-02-20T09:04:51.891Z,101513.57
2019-02-20T09:07:17.655Z,101529.38
2019-02-20T09:09:43.410Z,101530.91
2019-02-20T09:12:09.194Z,101531.25
2019-02-20T09:14:34.943Z,101546.02
2019-02-20T09:17:00.714Z,101542.92
2019-02-20T09:19:26.459Z,101547.20
2019-02-20T09:21:52.235Z,101546.13
2019-02-20T09:24:17.996Z,101547.81
2019-02-20T09:26:43.806Z,101547.16
2019-02-20T09:29:09.591Z,101555.27
2019-02-20T09:31:35.328Z,101557.73
2019-02-20T09:34:01.113Z,101556.39
2019-02-20T09:36:26.862Z,101557.95
2019-02-20T09:38:52.639Z,101554.12
2019-02-20T09:41:18.392Z,101561.46
2019-02-20T09:43:44.884Z,101563.15
2019-02-20T09:46:10.639Z,101563.33
2019-02-20T09:48:36.409Z,101565.87
2019-02-20T09:51:02.184Z,101560.98
2019-02-20T09:53:27.950Z,101566.08
2019-02-20T09:55:53.739Z,101568.42
2019-02-20T09:58:19.526Z,101568.52
2019-02-20T10:00:45.282Z,101565.52
2019-02-20T10:03:11.048Z,101566.55
2019-02-20T10:05:36.805Z,101572.75
2019-02-20T10:08:04.449Z,101574.09
2019-02-20T10:10:30.328Z,101578.96
2019-02-20T10:12:56.155Z,101574.59
2019-02-20T10:15:21.932Z,101525.39
2019-02-20T10:17:47.688Z,101584.71
2019-02-20T10:20:13.449Z,101589.29
2019-02-20T10:22:39.197Z,101599.87
2019-02-20T10:25:09.999Z,101603.02
2019-02-20T10:27:35.754Z,101602.34
2019-02-20T10:30:01.533Z,101601.47
2019-02-20T10:32:27.418Z,101605.16
2019-02-20T10:34:53.448Z,101611.58
2019-02-20T10:37:19.218Z,101616.98
2019-02-20T10:39:44.999Z,101616.98
2019-02-20T10:42:10.747Z,101623.87
2019-02-20T10:44:36.561Z,101621.33
2019-02-20T10:47:02.296Z,101631.73
2019-02-20T10:49:28.119Z,101630.77
2019-02-20T10:51:53.867Z,101626.70
2019-02-20T10:54:19.624Z,101627.08
2019-02-20T10:56:45.393Z,101633.47
2019-02-20T10:59:11.166Z,101637.84
2019-02-20T11:01:36.927Z,101635.53
2019-02-20T11:04:03.704Z,101636.08
2019-02-20T11:06:29.607Z,101641.22
2019-02-20T11:08:55.358Z,101643.32
2019-02-20T11:11:21.810Z,101642.88
2019-02-20T11:13:47.769Z,101649.32
2019-02-20T11:16:16.988Z,101644.56
2019-02-20T11:18:42.764Z,101650.11
2019-02-20T11:21:09.361Z,101645.91
2019-02-20T11:23:35.883Z,101641.22
2019-02-20T11:26:04.834Z,101642.56
2019-02-20T11:28:30.669Z,101646.45
2019-02-20T11:30:56.917Z,101646.45
2019-02-20T11:33:23.297Z,101636.50
2019-02-20T11:35:49.129Z,101647.59
2019-02-20T11:38:14.885Z,101639.73
2019-02-20T11:40:40.654Z,101646.97
2019-02-20T11:43:06.427Z,101647.63
2019-02-20T11:45:32.197Z,101657.33
2019-02-20T11:47:57.964Z,101646.05
2019-02-20T11:50:23.745Z,101646.29
2019-02-20T11:52:49.489Z,101649.80
2019-02-20T11:55:15.254Z,101654.39
2019-02-20T11:57:41.009Z,101647.66
2019-02-20T12:00:16.075Z,101657.11
2019-02-20T12:02:42.303Z,101653.05
2019-02-20T12:05:08.233Z,101648.66
2019-02-20T12:07:33.994Z,101646.97
2019-02-20T12:09:59.745Z,101655.05
2019-02-20T12:12:25.523Z,101655.73
2019-02-20T12:14:51.311Z,101657.14
2019-02-20T12:17:17.111Z,101661.00
2019-02-20T12:19:42.857Z,101661.48
2019-02-20T12:22:08.658Z,101655.56
2019-02-20T12:24:34.412Z,101656.39
2019-02-20T12:27:00.189Z,101668.84
2019-02-20T12:29:25.952Z,101665.32
2019-02-20T12:31:52.711Z,101661.11
2019-02-20T12:34:18.796Z,101669.49
2019-02-20T12:36:44.579Z,101672.15
2019-02-20T12:39:11.042Z,101667.77
2019-02-20T12:41:36.833Z,101675.84
2019-02-20T12:44:02.587Z,101672.80
2019-02-20T12:46:28.365Z,101668.42
2019-02-20T12:48:54.130Z,101673.45
2019-02-20T12:51:20.015Z,101666.08
2019-02-20T12:53:45.768Z,101666.80
2019-02-20T12:56:11.589Z,101667.35
2019-02-20T12:58:38.367Z,101671.91
2019-02-20T13:01:04.279Z,101661.83
2019-02-20T13:03:30.057Z,101667.91
2019-02-20T13:05:55.821Z,101671.94
2019-02-20T13:08:21.584Z,101668.45
2019-02-20T13:10:47.370Z,101664.09
2019-02-20T13:13:13.094Z,101668.20
2019-02-20T13:15:38.948Z,101662.34
2019-02-20T13:18:04.727Z,101669.94
2019-02-20T13:20:30.481Z,101664.19
2019-02-20T13:22:56.250Z,101671.10
2019-02-20T13:25:21.998Z,101669.44
2019-02-20T13:27:47.788Z,101666.89
2019-02-20T13:30:13.635Z,101665.08
2019-02-20T13:32:39.418Z,101666.07
2019-02-20T13:35:05.186Z,101670.87
2019-02-20T13:37:30.947Z,101674.71
2019-02-20T13:39:56.716Z,101675.84
2019-02-20T13:42:22.510Z,101672.12
2019-02-20T13:44:48.325Z,101670.94
2019-02-20T13:47:14.081Z,101671.77
2019-02-20T13:49:39.848Z,101666.38
2019-02-20T13:52:05.614Z,101664.73
2019-02-20T13:54:31.399Z,101664.39
2019-02-20T13:57:02.003Z,101665.22
2019-02-20T13:59:24.934Z,101664.63
2019-02-20T14:01:51.086Z,101664.63
2019-02-20T14:04:16.868Z,101664.63
2019-02-20T14:06:42.690Z,101665.27
2019-02-20T14:09:08.485Z,101664.06
2019-02-20T14:11:34.251Z,101663.95
2019-02-20T14:14:00.727Z,101663.95
2019-02-20T14:16:26.499Z,101668.48
2019-02-20T14:18:52.282Z,101668.48
2019-02-20T14:21:18.054Z,101667.48
2019-02-20T14:23:44.288Z,101664.92
2019-02-20T14:26:10.055Z,101665.22
2019-02-20T14:28:35.854Z,101661.69
2019-02-20T14:31:01.614Z,101669.43
2019-02-20T14:33:27.371Z,101662.51
2019-02-20T14:35:53.125Z,101666.51
2019-02-20T14:38:20.847Z,101667.05
2019-02-20T14:40:46.625Z,101661.04
2019-02-20T14:43:12.413Z,101661.04
2019-02-20T14:45:38.478Z,101661.04
2019-02-20T14:48:04.235Z,101661.04
2019-02-20T14:50:30.016Z,101663.39
2019-02-20T14:52:55.802Z,101654.44
2019-02-20T14:55:21.550Z,101653.78
2019-02-20T14:57:47.293Z,101654.61
2019-02-20T15:00:14.162Z,101650.75
2019-02-20T15:02:40.017Z,101653.27
2019-02-20T15:05:05.788Z,101662.33
2019-02-20T15:07:33.829Z,101659.78
2019-02-20T15:09:59.604Z,101662.16
2019-02-20T15:12:25.372Z,101664.51
2019-02-20T15:14:51.136Z,101666.00
2019-02-20T15:17:16.886Z,101669.69
2019-02-20T15:19:42.646Z,101670.05
2019-02-20T15:22:08.394Z,101666.34
2019-02-20T15:24:34.159Z,101668.55
2019-02-20T15:26:59.900Z,101667.81
2019-02-20T15:29:25.865Z,101673.02
2019-02-20T15:31:51.609Z,101677.77
2019-02-20T15:34:17.370Z,101678.12
2019-02-20T15:36:43.121Z,101679.44
2019-02-20T15:39:08.902Z,101679.09
2019-02-20T15:41:34.654Z,101674.88
2019-02-20T15:44:00.439Z,101674.08
2019-02-20T15:46:26.186Z,101675.27
2019-02-20T15:48:51.965Z,101675.10
2019-02-20T15:51:18.129Z,101676.42
2019-02-20T15:53:43.876Z,101674.08
2019-02-20T15:56:09.636Z,101680.31
2019-02-20T15:58:35.408Z,101682.17
2019-02-20T16:01:01.274Z,101680.16
2019-02-20T16:03:27.033Z,101683.58
2019-02-20T16:05:52.785Z,101685.48
2019-02-20T16:08:18.536Z,101691.07
2019-02-20T16:10:44.306Z,101681.37
2019-02-20T16:13:10.048Z,101684.91
2019-02-20T16:15:36.136Z,101691.88
2019-02-20T16:18:01.890Z,101694.66
2019-02-20T16:20:27.655Z,101693.46
2019-02-20T16:22:53.422Z,101696.73
2019-02-20T16:25:19.199Z,101690.94
2019-02-20T16:27:47.549Z,101685.08
2019-02-20T16:30:13.215Z,101683.83
2019-02-20T16:32:38.966Z,101681.66
2019-02-20T16:35:07.761Z,101679.93
2019-02-20T16:37:33.583Z,101685.00
2019-02-20T16:39:59.363Z,101688.52
2019-02-20T16:42:25.109Z,101694.41
2019-02-20T16:44:50.880Z,101689.52
2019-02-20T16:47:16.664Z,101691.72
2019-02-20T16:49:42.438Z,101693.72
2019-02-20T16:52:08.194Z,101701.17
2019-02-20T16:54:33.952Z,101695.28
2019-02-20T16:56:59.699Z,101697.66
2019-02-20T16:59:25.561Z,101696.23
2019-02-20T17:01:53.056Z,101693.02
2019-02-20T17:04:18.880Z,101686.87
2019-02-20T17:06:44.844Z,101688.90
2019-02-20T17:09:10.596Z,101688.22
2019-02-20T17:11:36.385Z,101689.73
2019-02-20T17:14:02.130Z,101697.97
2019-02-20T17:16:27.904Z,101701.87
2019-02-20T17:18:54.063Z,101705.55
2019-02-20T17:21:19.833Z,101712.27
2019-02-20T17:23:45.576Z,101714.75
2019-02-20T17:26:11.342Z,101713.92
2019-02-20T17:28:37.091Z,101717.78
2019-02-20T17:31:02.872Z,101719.30
2019-02-20T17:33:28.618Z,101723.02
2019-02-20T17:35:54.377Z,101724.02
2019-02-20T17:38:20.131Z,101720.12
2019-02-20T17:40:46.295Z,101721.80
2019-02-20T17:43:12.060Z,101720.94
2019-02-20T17:45:37.824Z,101717.26
2019-02-20T17:48:03.581Z,101721.64
2019-02-20T17:50:29.361Z,101727.18
2019-02-20T17:52:55.136Z,101724.49
2019-02-20T17:55:20.896Z,101725.48
2019-02-20T17:57:46.650Z,101720.77
2019-02-20T18:00:14.198Z,101727.83
2019-02-20T18:02:40.080Z,101719.91
2019-02-20T18:05:06.724Z,101722.63
2019-02-20T18:07:32.513Z,101721.80
2019-02-20T18:09:58.279Z,101731.70
2019-02-20T18:12:24.036Z,101726.20
2019-02-20T18:14:49.814Z,101724.33
2019-02-20T18:17:15.583Z,101722.73
2019-02-20T18:19:41.339Z,101731.48
2019-02-20T18:22:07.109Z,101728.97
2019-02-20T18:24:32.890Z,101721.13
2019-02-20T18:26:58.664Z,101727.98
2019-02-20T18:29:24.428Z,101725.72
2019-02-20T18:31:50.185Z,101726.23
2019-02-20T18:34:15.936Z,101727.97
2019-02-20T18:36:41.701Z,101723.94
2019-02-20T18:39:07.691Z,101731.14
2019-02-20T18:41:33.451Z,101737.03
2019-02-20T18:43:59.180Z,101723.24
2019-02-20T18:46:24.940Z,101724.46
2019-02-20T18:48:50.710Z,101722.77
2019-02-20T18:51:16.503Z,101719.05
2019-02-20T18:53:42.273Z,101725.30
2019-02-20T18:56:08.050Z,101718.23
2019-02-20T18:58:34.406Z,101719.00
2019-02-20T19:01:00.212Z,101721.69
2019-02-20T19:03:25.989Z,101722.86
2019-02-20T19:05:51.758Z,101720.91
2019-02-20T19:08:30.474Z,101719.08
2019-02-20T19:11:07.555Z,101715.92
2019-02-20T19:13:58.148Z,101718.61
2019-02-20T19:16:47.407Z,101720.44
2019-02-20T19:19:32.184Z,101718.09
2019-02-20T19:22:21.511Z,101730.54
2019-02-20T19:25:19.822Z,101730.54
2019-02-20T19:27:58.178Z,101732.23
2019-02-20T19:30:50.648Z,101731.41
2019-02-20T19:33:32.116Z,101739.16
2019-02-20T19:36:07.068Z,101738.61
2019-02-20T19:38:54.809Z,101733.05
2019-02-20T19:41:36.556Z,101734.97
2019-02-20T19:44:18.043Z,101733.09
2019-02-20T19:47:11.327Z,101726.03
2019-02-20T19:49:46.559Z,101722.82
2019-02-20T19:52:16.107Z,101723.03
2019-02-20T19:54:45.712Z,101723.03
2019-02-20T19:57:18.339Z,101721.52
2019-02-20T20:00:02.831Z,101723.90
2019-02-20T20:02:38.463Z,101716.70
2019-02-20T20:05:23.007Z,101717.70
2019-02-20T20:08:16.746Z,101717.83
2019-02-20T20:11:10.482Z,101723.20
2019-02-20T20:13:46.214Z,101719.35
2019-02-20T20:16:21.495Z,101718.87
2019-02-20T20:19:10.487Z,101724.91
2019-02-20T20:21:54.776Z,101722.22
2019-02-20T20:24:27.074Z,101721.20
2019-02-20T20:26:56.607Z,101721.20
2019-02-20T20:29:53.316Z,101720.34
2019-02-20T20:32:22.847Z,101720.69
2019-02-20T20:35:20.966Z,101718.52
2019-02-20T20:38:10.237Z,101714.75
2019-02-20T20:40:45.743Z,101716.44
2019-02-20T20:43:34.514Z,101711.89
2019-02-20T20:46:16.182Z,101711.06
2019-02-20T20:48:54.605Z,101715.75
2019-02-20T20:51:46.664Z,101715.75
2019-02-20T20:54:21.805Z,101722.64
2019-02-20T20:56:57.741Z,101726.64
2019-02-20T20:59:25.583Z,101723.12
2019-02-20T21:02:09.271Z,101721.91
2019-02-20T21:04:50.623Z,101725.30
2019-02-20T21:07:25.949Z,101729.49
2019-02-20T21:09:58.022Z,101733.88
2019-02-20T21:12:39.144Z,101724.30
2019-02-20T21:15:20.380Z,101723.42
2019-02-20T21:17:59.051Z,101721.95
2019-02-20T21:20:49.645Z,101723.12
2019-02-20T21:23:41.216Z,101716.70
2019-02-20T21:26:19.942Z,101716.40
2019-02-20T21:28:58.412Z,101709.67
2019-02-20T21:31:30.519Z,101711.54
2019-02-20T21:34:03.236Z,101711.54
2019-02-20T21:36:38.649Z,101716.23
2019-02-20T21:39:22.654Z,101719.08
2019-02-20T21:42:10.256Z,101723.95
2019-02-20T21:44:51.946Z,101728.15
2019-02-20T21:47:36.702Z,101721.78
2019-02-20T21:50:12.033Z,101722.77
2019-02-20T21:53:01.067Z,101725.46
2019-02-20T21:55:51.858Z,101725.11
2019-02-20T21:58:39.555Z,101724.77
2019-02-20T22:01:21.165Z,101725.16
2019-02-20T22:04:21.017Z,101725.16
2019-02-20T22:07:02.229Z,101721.48
2019-02-20T22:09:34.333Z,101724.47
2019-02-20T22:12:12.284Z,101724.81
2019-02-20T22:14:50.936Z,101721.99
2019-02-20T22:17:23.286Z,101728.02
2019-02-20T22:19:58.437Z,101718.44
2019-02-20T22:22:36.401Z,101716.05
2019-02-20T22:25:15.049Z,101718.09
2019-02-20T22:28:02.786Z,101721.13
2019-02-20T22:30:32.368Z,101723.17
2019-02-20T22:33:04.506Z,101725.50
2019-02-20T22:35:53.470Z,101724.20
2019-02-20T22:38:40.750Z,101723.12
2019-02-20T22:41:25.496Z,101723.82
2019-02-20T22:44:20.533Z,101723.82
2019-02-20T22:47:08.246Z,101726.98
2019-02-20T22:49:40.553Z,101723.47
2019-02-20T22:52:16.273Z,101718.78
2019-02-20T22:55:12.286Z,101721.78
2019-02-20T22:57:44.897Z,101718.44
2019-02-20T23:00:42.212Z,101718.05
2019-02-20T23:03:35.668Z,101716.70
2019-02-20T23:06:35.078Z,101706.95
2019-02-20T23:09:10.262Z,101714.53
2019-02-20T23:11:50.758Z,101709.29
2019-02-20T23:14:19.942Z,101707.30
2019-02-20T23:16:45.749Z,101704.09
2019-02-20T23:19:11.491Z,101706.95
2019-02-20T23:21:37.263Z,101697.36
2019-02-20T23:24:03.032Z,101703.73
2019-02-20T23:26:28.786Z,101706.24
2019-02-20T23:28:54.654Z,101710.27
2019-02-20T23:31:20.405Z,101715.95
2019-02-20T23:33:46.176Z,101712.58
2019-02-20T23:36:11.948Z,101713.58
2019-02-20T23:38:37.724Z,101712.23
2019-02-20T23:41:03.474Z,101709.93
2019-02-20T23:43:29.248Z,101717.13
2019-02-20T23:45:55.002Z,101720.64
2019-02-20T23:48:20.777Z,101713.62
2019-02-20T23:50:46.551Z,101718.47
2019-02-20T23:53:12.316Z,101714.09
2019-02-20T23:55:38.088Z,101714.91
2019-02-20T23:58:03.942Z,101711.40
